Time;durP1;ratioP1;P1;durP2;ratioP2;P2;SDS_P1;SDS_P2;PMS_P1;PMS_P2;Temp;Humidity;BMP_temperature;BMP_pressure;BME280_temperature;BME280_humidity;BME280_pressure;Samples;Min_cycle;Max_cycle;Signal;HPM_P1;HPM_P2
2022/11/04 00:01:51;;;;;;;;;1.67;1.00;;;;;-147.17;100.00;-15917.19;5012695;28;51052;-43
2022/11/04 00:04:19;;;;;;;;;2.67;1.67;;;;;-147.17;100.00;-15917.19;5012858;28;51106;-43
2022/11/04 00:06:44;;;;;;;;;2.00;1.00;;;;;-147.17;100.00;-15917.19;5013293;28;51167;-43
2022/11/04 00:09:14;;;;;;;;;2.33;2.33;;;;;-147.17;100.00;-15917.19;5011236;28;51168;-42
2022/11/04 00:14:23;;;;;;;;;0.67;0.67;;;;;-147.17;100.00;-15917.19;5012564;28;51455;-43
2022/11/04 00:28:41;;;;;;;;;1.00;1.00;;;;;-147.17;100.00;-15917.19;5010850;28;51068;-43
2022/11/04 00:30:30;;;;;;;;;2.00;1.33;;;;;-147.17;100.00;-15917.19;5011943;28;50925;-43
2022/11/04 00:35:39;;;;;;;;;2.00;1.00;;;;;-147.17;100.00;-15917.19;5013518;28;51155;-43
2022/11/04 00:38:04;;;;;;;;;2.00;1.00;;;;;-147.17;100.00;-15917.19;5012048;28;51999;-44
2022/11/04 00:40:30;;;;;;;;;3.67;1.00;;;;;-147.17;100.00;-15917.19;5010964;28;51100;-43
2022/11/04 00:42:55;;;;;;;;;1.00;0.67;;;;;-147.17;100.00;-15917.19;5006780;28;51142;-44
2022/11/04 00:45:20;;;;;;;;;3.00;2.00;;;;;-147.17;100.00;-15917.19;5011934;28;51400;-43
2022/11/04 00:47:45;;;;;;;;;2.00;2.00;;;;;-147.17;100.00;-15917.19;5011771;28;51654;-44
2022/11/04 00:50:11;;;;;;;;;1.00;0.67;;;;;-147.17;100.00;-15917.19;5011051;28;56589;-42
2022/11/04 00:52:36;;;;;;;;;4.00;2.00;;;;;-147.17;100.00;-15917.19;5011228;28;51576;-43
2022/11/04 00:55:02;;;;;;;;;1.00;0.67;;;;;-147.17;100.00;-15917.19;5013917;28;51306;-43
2022/11/04 00:57:28;;;;;;;;;2.33;2.00;;;;;-147.17;100.00;-15917.19;5013811;28;52257;-44
2022/11/04 00:59:53;;;;;;;;;0.67;0.33;;;;;-147.17;100.00;-15917.19;5011841;28;51003;-43
2022/11/04 01:02:18;;;;;;;;;1.00;1.00;;;;;-147.17;100.00;-15917.19;5011435;28;51084;-44
2022/11/04 01:04:45;;;;;;;;;2.00;2.00;;;;;-147.17;100.00;-15917.19;5014262;28;51308;-43
2022/11/04 01:07:11;;;;;;;;;2.00;1.00;;;;;-147.17;100.00;-15917.19;5011285;28;51161;-44
2022/11/04 01:09:36;;;;;;;;;2.00;1.00;;;;;-147.17;100.00;-15917.19;5010539;28;54295;-44
2022/11/04 01:12:01;;;;;;;;;2.00;2.00;;;;;-147.17;100.00;-15917.19;5014338;28;51245;-44
2022/11/04 01:14:27;;;;;;;;;1.00;1.00;;;;;-147.17;100.00;-15917.19;4987750;28;51216;-44
2022/11/04 01:16:52;;;;;;;;;1.00;1.00;;;;;-147.17;100.00;-15917.19;5013546;28;51123;-44
2022/11/04 01:19:17;;;;;;;;;2.00;0.67;;;;;-147.17;100.00;-15917.19;5007806;28;53942;-49
2022/11/04 01:21:43;;;;;;;;;2.00;0.67;;;;;-147.17;100.00;-15917.19;5013696;28;51157;-43
2022/11/04 01:24:08;;;;;;;;;1.00;1.00;;;;;-147.17;100.00;-15917.19;5011369;28;52370;-47
2022/11/04 01:26:34;;;;;;;;;2.00;1.67;;;;;-147.17;100.00;-15917.19;5012882;28;56467;-43
2022/11/04 01:28:59;;;;;;;;;1.67;1.33;;;;;-147.17;100.00;-15917.19;5013907;28;50847;-43
2022/11/04 01:31:27;;;;;;;;;0.33;0.33;;;;;-147.17;100.00;-15917.19;5009960;28;51131;-43
2022/11/04 01:33:54;;;;;;;;;1.00;1.00;;;;;-147.17;100.00;-15917.19;5012763;28;51088;-43
2022/11/04 01:36:20;;;;;;;;;0.33;0.00;;;;;-147.17;100.00;-15917.19;5012969;28;51162;-43
2022/11/04 01:38:46;;;;;;;;;2.00;1.00;;;;;-147.17;100.00;-15917.19;5013320;28;51064;-44
2022/11/04 01:41:23;;;;;;;;;0.00;0.00;;;;;-147.17;100.00;-15917.19;5009199;28;51150;-44
2022/11/04 01:43:55;;;;;;;;;0.00;0.00;;;;;-147.17;100.00;-15917.19;4995181;28;51278;-44
2022/11/04 01:46:26;;;;;;;;;1.00;1.00;;;;;-147.17;100.00;-15917.19;5012812;28;51724;-44
2022/11/04 01:48:58;;;;;;;;;0.00;0.00;;;;;-147.17;100.00;-15917.19;5013846;28;50977;-43
2022/11/04 01:51:24;;;;;;;;;1.00;1.00;;;;;-147.17;100.00;-15917.19;5011530;28;51028;-43
2022/11/04 01:53:54;;;;;;;;;0.00;0.00;;;;;-147.17;100.00;-15917.19;5011081;28;51155;-44
2022/11/04 01:56:20;;;;;;;;;1.00;0.00;;;;;-147.17;100.00;-15917.19;5010767;28;52195;-43
2022/11/04 01:58:50;;;;;;;;;0.00;0.00;;;;;-147.17;100.00;-15917.19;4994186;28;51236;-46
2022/11/04 02:01:15;;;;;;;;;1.00;1.00;;;;;-147.17;100.00;-15917.19;5012394;28;52439;-45
2022/11/04 02:03:43;;;;;;;;;1.00;0.00;;;;;-147.17;100.00;-15917.19;5013145;28;51349;-44
2022/11/04 02:06:09;;;;;;;;;0.00;0.00;;;;;-147.17;100.00;-15917.19;5009873;28;53896;-43
2022/11/04 02:08:37;;;;;;;;;2.00;1.67;;;;;-147.17;100.00;-15917.19;5000843;28;50968;-43
2022/11/04 02:11:03;;;;;;;;;1.00;1.00;;;;;-147.17;100.00;-15917.19;5003946;28;51124;-43
2022/11/04 02:13:31;;;;;;;;;1.00;1.00;;;;;-147.17;100.00;-15917.19;5011978;28;50968;-44
2022/11/04 02:16:18;;;;;;;;;1.00;1.00;;;;;-147.17;100.00;-15917.19;5009306;28;52210;-43
2022/11/04 02:19:12;;;;;;;;;2.00;2.00;;;;;-147.17;100.00;-15917.19;5012633;28;51127;-44
2022/11/04 02:21:46;;;;;;;;;0.67;0.00;;;;;-147.17;100.00;-15917.19;5012521;28;50893;-43
2022/11/04 02:24:41;;;;;;;;;1.00;1.00;;;;;-147.17;100.00;-15917.19;5011926;28;51036;-43
2022/11/04 02:27:42;;;;;;;;;1.00;0.00;;;;;-147.17;100.00;-15917.19;4959540;28;51176;-45
2022/11/04 02:30:17;;;;;;;;;0.00;0.00;;;;;-147.17;100.00;-15917.19;5003944;28;51413;-43
2022/11/04 02:33:24;;;;;;;;;0.00;0.00;;;;;-147.17;100.00;-15917.19;5004509;28;51191;-43
2022/11/04 02:36:01;;;;;;;;;1.00;1.00;;;;;-147.17;100.00;-15917.19;4979286;28;51602;-43
2022/11/04 02:38:53;;;;;;;;;0.00;0.00;;;;;-147.17;100.00;-15917.19;5011120;28;52029;-44
2022/11/04 02:41:31;;;;;;;;;0.67;0.67;;;;;-147.17;100.00;-15917.19;4982760;28;51303;-44
2022/11/04 02:44:04;;;;;;;;;2.67;1.00;;;;;-147.17;100.00;-15917.19;5008458;28;51082;-44
2022/11/04 02:46:46;;;;;;;;;0.67;0.00;;;;;-147.17;100.00;-15917.19;5010227;28;51321;-44
2022/11/04 02:49:16;;;;;;;;;1.00;0.00;;;;;-147.17;100.00;-15917.19;5010742;28;51836;-44
2022/11/04 02:52:03;;;;;;;;;0.00;0.00;;;;;-147.17;100.00;-15917.19;5009470;28;50938;-45
2022/11/04 02:54:36;;;;;;;;;2.00;0.00;;;;;-147.17;100.00;-15917.19;5012037;28;51251;-44
2022/11/04 02:57:06;;;;;;;;;1.00;0.00;;;;;-147.17;100.00;-15917.19;5004315;28;50899;-44
2022/11/04 02:59:40;;;;;;;;;0.00;0.00;;;;;-147.17;100.00;-15917.19;4993774;28;51713;-44
2022/11/04 03:02:09;;;;;;;;;1.00;0.00;;;;;-147.17;100.00;-15917.19;5011075;28;50996;-44
2022/11/04 03:04:40;;;;;;;;;0.00;0.00;;;;;-147.17;100.00;-15917.19;5009908;28;52643;-43
2022/11/04 03:07:10;;;;;;;;;1.00;1.00;;;;;-147.17;100.00;-15917.19;5013796;28;51102;-43
2022/11/04 03:09:39;;;;;;;;;0.00;0.00;;;;;-147.17;100.00;-15917.19;5008081;28;51749;-44
2022/11/04 03:12:12;;;;;;;;;1.00;1.00;;;;;-147.17;100.00;-15917.19;5004494;28;51313;-43
2022/11/04 03:14:45;;;;;;;;;1.00;0.67;;;;;-147.17;100.00;-15917.19;5012459;28;50960;-43
2022/11/04 03:17:19;;;;;;;;;1.00;0.00;;;;;-147.17;100.00;-15917.19;5014047;28;51050;-43
2022/11/04 03:19:57;;;;;;;;;1.00;1.00;;;;;-147.17;100.00;-15917.19;5018531;28;51112;-43
2022/11/04 03:22:26;;;;;;;;;3.33;1.33;;;;;-147.17;100.00;-15917.19;5017530;28;50981;-44
2022/11/04 03:24:52;;;;;;;;;0.00;0.00;;;;;-147.17;100.00;-15917.19;5015234;28;51170;-43
2022/11/04 03:27:42;;;;;;;;;1.00;0.33;;;;;-147.17;100.00;-15917.19;5014540;28;51412;-44
2022/11/04 03:30:12;;;;;;;;;0.00;0.00;;;;;-147.17;100.00;-15917.19;5017419;28;51081;-43
2022/11/04 03:32:42;;;;;;;;;0.00;0.00;;;;;-147.17;100.00;-15917.19;5016727;28;51228;-43
2022/11/04 03:35:09;;;;;;;;;2.33;0.00;;;;;-147.17;100.00;-15917.19;5017247;28;51112;-43
2022/11/04 03:37:35;;;;;;;;;0.67;0.33;;;;;-147.17;100.00;-15917.19;5019082;28;51183;-43
2022/11/04 03:40:01;;;;;;;;;0.33;0.00;;;;;-147.17;100.00;-15917.19;5016885;28;51213;-44
2022/11/04 03:42:27;;;;;;;;;0.00;0.00;;;;;-147.17;100.00;-15917.19;4989699;28;51275;-44
2022/11/04 03:44:55;;;;;;;;;2.00;0.00;;;;;-147.17;100.00;-15917.19;5011750;28;51173;-43
2022/11/04 03:47:24;;;;;;;;;1.00;0.00;;;;;-147.17;100.00;-15917.19;5013724;28;51558;-43
2022/11/04 03:49:54;;;;;;;;;2.00;0.00;;;;;-147.17;100.00;-15917.19;5006778;28;51707;-44
2022/11/04 03:52:20;;;;;;;;;0.00;0.00;;;;;-147.17;100.00;-15917.19;5007423;28;51213;-42
2022/11/04 03:54:46;;;;;;;;;0.00;0.00;;;;;-147.17;100.00;-15917.19;5019123;28;51210;-42
2022/11/04 03:57:36;;;;;;;;;1.67;1.00;;;;;-147.17;100.00;-15917.19;5018163;28;51098;-44
2022/11/04 04:00:08;;;;;;;;;1.00;1.00;;;;;-147.17;100.00;-15917.19;5016928;28;52138;-44
2022/11/04 04:02:52;;;;;;;;;0.33;0.33;;;;;-147.17;100.00;-15917.19;5015105;28;51621;-43
2022/11/04 04:05:20;;;;;;;;;1.00;1.00;;;;;-147.17;100.00;-15917.19;5018355;28;51188;-43
2022/11/04 04:08:06;;;;;;;;;1.00;0.33;;;;;-147.17;100.00;-15917.19;5017837;28;51342;-43
2022/11/04 04:10:56;;;;;;;;;1.00;1.00;;;;;-147.17;100.00;-15917.19;5016324;28;51911;-43
2022/11/04 04:13:26;;;;;;;;;0.00;0.00;;;;;-147.17;100.00;-15917.19;5015627;28;51335;-43
2022/11/04 04:16:02;;;;;;;;;1.00;0.67;;;;;-147.17;100.00;-15917.19;5016040;28;51315;-43
2022/11/04 04:18:58;;;;;;;;;1.00;0.00;;;;;-147.17;100.00;-15917.19;5018031;28;51348;-43
2022/11/04 04:21:41;;;;;;;;;1.00;0.33;;;;;-147.17;100.00;-15917.19;5010778;28;51799;-43
2022/11/04 04:29:43;;;;;;;;;0.00;0.00;;;;;-147.17;100.00;-15917.19;5015045;28;51116;-43
2022/11/04 04:32:09;;;;;;;;;3.00;0.00;;;;;-147.17;100.00;-15917.19;5010743;28;52341;-45
2022/11/04 04:34:35;;;;;;;;;0.00;0.00;;;;;-147.17;100.00;-15917.19;5013633;28;51162;-43
2022/11/04 04:37:10;;;;;;;;;0.00;0.00;;;;;-147.17;100.00;-15917.19;5011238;28;51144;-43
2022/11/04 04:45:35;;;;;;;;;0.00;0.00;;;;;-147.17;100.00;-15917.19;4983664;28;50912;-44
2022/11/04 04:48:00;;;;;;;;;0.00;0.00;;;;;-147.17;100.00;-15917.19;5005705;28;51162;-44
2022/11/04 04:50:36;;;;;;;;;0.00;0.00;;;;;-147.17;100.00;-15917.19;5010957;28;51327;-44
2022/11/04 04:53:03;;;;;;;;;0.00;0.00;;;;;-147.17;100.00;-15917.19;4990821;28;51525;-44
2022/11/04 04:55:30;;;;;;;;;0.00;0.00;;;;;-147.17;100.00;-15917.19;4993734;28;51423;-44
2022/11/04 04:57:55;;;;;;;;;0.00;0.00;;;;;-147.17;100.00;-15917.19;4999891;28;51214;-43
2022/11/04 05:00:21;;;;;;;;;0.00;0.00;;;;;-147.17;100.00;-15917.19;4985403;28;52592;-43
2022/11/04 05:02:47;;;;;;;;;1.67;1.00;;;;;-147.17;100.00;-15917.19;4992185;28;52412;-43
2022/11/04 05:05:13;;;;;;;;;0.00;0.00;;;;;-147.17;100.00;-15917.19;4993569;28;51052;-43
2022/11/04 05:07:39;;;;;;;;;0.67;0.67;;;;;-147.17;100.00;-15917.19;4994322;28;51162;-43
2022/11/04 05:10:06;;;;;;;;;0.00;0.00;;;;;-147.17;100.00;-15917.19;4994128;28;51334;-44
2022/11/04 05:15:18;;;;;;;;;2.00;0.00;;;;;-147.17;100.00;-15917.19;4993115;28;51193;-44
2022/11/04 05:17:43;;;;;;;;;2.67;1.00;;;;;-147.17;100.00;-15917.19;4994257;28;51092;-43
2022/11/04 05:20:09;;;;;;;;;0.00;0.00;;;;;-147.17;100.00;-15917.19;4993988;28;51083;-44
2022/11/04 05:22:34;;;;;;;;;0.00;0.00;;;;;-147.17;100.00;-15917.19;4987047;28;52874;-43
2022/11/04 05:24:59;;;;;;;;;0.00;0.00;;;;;-147.17;100.00;-15917.19;4990912;28;51236;-43
2022/11/04 05:27:25;;;;;;;;;1.00;1.00;;;;;-147.17;100.00;-15917.19;4992354;28;51277;-42
2022/11/04 05:29:50;;;;;;;;;0.33;0.00;;;;;-147.17;100.00;-15917.19;4992461;28;50901;-44
2022/11/04 05:32:15;;;;;;;;;0.67;0.67;;;;;-147.17;100.00;-15917.19;4990418;28;51149;-43
2022/11/04 05:34:41;;;;;;;;;0.00;0.00;;;;;-147.17;100.00;-15917.19;4993591;28;50952;-44
2022/11/04 05:37:06;;;;;;;;;0.33;0.33;;;;;-147.17;100.00;-15917.19;4993100;28;51026;-43
2022/11/04 05:39:31;;;;;;;;;0.00;0.00;;;;;-147.17;100.00;-15917.19;4992782;28;51391;-44
2022/11/04 05:41:57;;;;;;;;;1.00;0.00;;;;;-147.17;100.00;-15917.19;4986790;28;52067;-44
2022/11/04 05:44:22;;;;;;;;;0.00;0.00;;;;;-147.17;100.00;-15917.19;5008014;28;51423;-43
2022/11/04 05:46:48;;;;;;;;;0.67;0.67;;;;;-147.17;100.00;-15917.19;4991063;28;51200;-43
2022/11/04 05:49:13;;;;;;;;;1.00;1.00;;;;;-147.17;100.00;-15917.19;4993382;28;51079;-43
2022/11/04 05:51:38;;;;;;;;;0.00;0.00;;;;;-147.17;100.00;-15917.19;4993776;28;52596;-43
2022/11/04 05:54:04;;;;;;;;;0.00;0.00;;;;;-147.17;100.00;-15917.19;5011356;28;51214;-43
2022/11/04 05:56:29;;;;;;;;;1.00;1.00;;;;;-147.17;100.00;-15917.19;5010566;28;51179;-43
2022/11/04 05:58:54;;;;;;;;;2.00;1.00;;;;;-147.17;100.00;-15917.19;5012046;28;51253;-44
2022/11/04 06:01:37;;;;;;;;;0.33;0.00;;;;;-147.17;100.00;-15917.19;5008762;28;52464;-43
2022/11/04 06:04:04;;;;;;;;;0.00;0.00;;;;;-147.17;100.00;-15917.19;5007446;28;50891;-44
2022/11/04 06:06:32;;;;;;;;;0.00;0.00;;;;;-147.17;100.00;-15917.19;5010174;28;51152;-44
2022/11/04 06:08:57;;;;;;;;;0.00;0.00;;;;;-147.17;100.00;-15917.19;5006430;28;51367;-43
2022/11/04 06:11:25;;;;;;;;;1.00;0.00;;;;;-147.17;100.00;-15917.19;5012556;28;51244;-43
2022/11/04 06:13:52;;;;;;;;;1.00;0.00;;;;;-147.17;100.00;-15917.19;5012127;28;51037;-44
2022/11/04 06:16:17;;;;;;;;;0.33;0.00;;;;;-147.17;100.00;-15917.19;5013052;28;51032;-43
2022/11/04 06:18:43;;;;;;;;;3.00;1.00;;;;;-147.17;100.00;-15917.19;5012477;28;51006;-43
2022/11/04 06:21:11;;;;;;;;;3.67;3.67;;;;;-147.17;100.00;-15917.19;5012852;28;51004;-43
2022/11/04 06:23:37;;;;;;;;;0.67;0.00;;;;;-147.17;100.00;-15917.19;4991842;28;51132;-44
2022/11/04 06:26:02;;;;;;;;;1.00;1.00;;;;;-147.17;100.00;-15917.19;5011809;28;51108;-43
2022/11/04 06:28:28;;;;;;;;;1.00;1.00;;;;;-147.17;100.00;-15917.19;5008454;28;51199;-43
2022/11/04 06:30:55;;;;;;;;;0.00;0.00;;;;;-147.17;100.00;-15917.19;5006651;28;51143;-45
2022/11/04 06:33:20;;;;;;;;;1.00;0.00;;;;;-147.17;100.00;-15917.19;4994137;28;51077;-44
2022/11/04 06:35:46;;;;;;;;;1.00;1.00;;;;;-147.17;100.00;-15917.19;5012362;28;51077;-44
2022/11/04 06:38:11;;;;;;;;;1.00;0.67;;;;;-147.17;100.00;-15917.19;5008817;28;51068;-44
2022/11/04 06:40:36;;;;;;;;;2.33;2.00;;;;;-147.17;100.00;-15917.19;5010714;28;51662;-43
2022/11/04 06:43:02;;;;;;;;;1.67;0.00;;;;;-147.17;100.00;-15917.19;4993455;28;51097;-44
2022/11/04 06:45:27;;;;;;;;;1.67;1.00;;;;;-147.17;100.00;-15917.19;5010164;28;54533;-44
2022/11/04 06:47:52;;;;;;;;;0.67;0.00;;;;;-147.17;100.00;-15917.19;5011533;28;50911;-44
2022/11/04 06:50:18;;;;;;;;;1.00;1.00;;;;;-147.17;100.00;-15917.19;5004491;28;51039;-44
2022/11/04 06:52:43;;;;;;;;;6.33;5.00;;;;;-147.17;100.00;-15917.19;5009967;28;51129;-44
2022/11/04 06:55:09;;;;;;;;;0.00;0.00;;;;;-147.17;100.00;-15917.19;5012318;28;51319;-44
2022/11/04 06:57:34;;;;;;;;;1.00;0.00;;;;;-147.17;100.00;-15917.19;5012645;28;51092;-43
2022/11/04 07:00:00;;;;;;;;;0.00;0.00;;;;;-147.17;100.00;-15917.19;5009679;28;69070;-43
2022/11/04 07:02:25;;;;;;;;;2.00;1.00;;;;;-147.17;100.00;-15917.19;5009110;28;51124;-42
2022/11/04 07:04:50;;;;;;;;;0.67;0.33;;;;;-147.17;100.00;-15917.19;5012211;28;51175;-43
2022/11/04 07:07:16;;;;;;;;;2.33;0.33;;;;;-147.17;100.00;-15917.19;5010407;28;51227;-43
2022/11/04 07:09:41;;;;;;;;;1.00;1.00;;;;;-147.17;100.00;-15917.19;4994047;28;52918;-44
2022/11/04 07:12:06;;;;;;;;;0.00;0.00;;;;;-147.17;100.00;-15917.19;5011328;28;51281;-44
2022/11/04 07:14:32;;;;;;;;;1.00;1.00;;;;;-147.17;100.00;-15917.19;5010547;28;51105;-44
2022/11/04 07:16:57;;;;;;;;;2.00;1.00;;;;;-147.17;100.00;-15917.19;5003812;28;51319;-44
2022/11/04 07:19:22;;;;;;;;;1.00;0.67;;;;;-147.17;100.00;-15917.19;5007342;28;54292;-44
2022/11/04 07:21:48;;;;;;;;;1.00;1.00;;;;;-147.17;100.00;-15917.19;5011579;28;50963;-45
2022/11/04 07:24:13;;;;;;;;;2.67;2.67;;;;;-147.17;100.00;-15917.19;5011528;28;51218;-44
2022/11/04 07:26:41;;;;;;;;;2.00;0.00;;;;;-147.17;100.00;-15917.19;5003157;28;51044;-44
2022/11/04 07:29:06;;;;;;;;;2.00;1.00;;;;;-147.17;100.00;-15917.19;4986796;28;53286;-44
2022/11/04 07:31:32;;;;;;;;;0.00;0.00;;;;;-147.17;100.00;-15917.19;5008045;28;50957;-44
2022/11/04 07:33:57;;;;;;;;;1.00;0.00;;;;;-147.17;100.00;-15917.19;5009467;28;51112;-44
2022/11/04 07:36:22;;;;;;;;;3.00;2.33;;;;;-147.17;100.00;-15917.19;4996042;28;51232;-44
2022/11/04 07:38:48;;;;;;;;;1.00;1.00;;;;;-147.17;100.00;-15917.19;5008686;28;51954;-47
2022/11/04 07:41:15;;;;;;;;;3.00;2.00;;;;;-147.17;100.00;-15917.19;5010628;28;51226;-46
2022/11/04 07:43:40;;;;;;;;;4.67;3.00;;;;;-147.17;100.00;-15917.19;5005158;28;51117;-46
2022/11/04 07:46:11;;;;;;;;;4.00;3.00;;;;;-147.17;100.00;-15917.19;5007066;28;51437;-47
2022/11/04 07:48:37;;;;;;;;;1.00;1.00;;;;;-147.17;100.00;-15917.19;5010492;28;51328;-46
2022/11/04 07:51:04;;;;;;;;;2.00;2.00;;;;;-147.17;100.00;-15917.19;5009844;28;51016;-47
2022/11/04 07:53:30;;;;;;;;;1.33;1.33;;;;;-147.17;100.00;-15917.19;5010157;28;51141;-46
2022/11/04 07:55:56;;;;;;;;;1.00;1.00;;;;;-147.17;100.00;-15917.19;5017236;28;51200;-46
2022/11/04 07:58:22;;;;;;;;;3.67;2.00;;;;;-147.17;100.00;-15917.19;5004607;28;52893;-47
2022/11/04 08:00:48;;;;;;;;;2.00;2.00;;;;;-147.17;100.00;-15917.19;5010381;28;50966;-46
2022/11/04 08:03:14;;;;;;;;;2.00;1.00;;;;;-147.17;100.00;-15917.19;5009608;28;51301;-45
2022/11/04 08:05:39;;;;;;;;;2.00;2.00;;;;;-147.17;100.00;-15917.19;5008684;28;51101;-46
2022/11/04 08:08:04;;;;;;;;;2.00;2.00;;;;;-147.17;100.00;-15917.19;5011765;28;52197;-46
2022/11/04 08:10:30;;;;;;;;;2.00;2.00;;;;;-147.17;100.00;-15917.19;5013447;28;50931;-45
2022/11/04 08:12:55;;;;;;;;;2.00;1.33;;;;;-147.17;100.00;-15917.19;5012849;28;51131;-45
2022/11/04 08:15:21;;;;;;;;;3.00;2.00;;;;;-147.17;100.00;-15917.19;5011550;28;51060;-46
2022/11/04 08:17:46;;;;;;;;;0.00;0.00;;;;;-147.17;100.00;-15917.19;5012488;28;51699;-46
2022/11/04 08:20:11;;;;;;;;;0.00;0.00;;;;;-147.17;100.00;-15917.19;5013845;28;50949;-46
2022/11/04 08:22:37;;;;;;;;;3.00;2.00;;;;;-147.17;100.00;-15917.19;5008492;28;50949;-46
2022/11/04 08:25:03;;;;;;;;;1.00;1.00;;;;;-147.17;100.00;-15917.19;4993082;28;51288;-45
2022/11/04 08:27:28;;;;;;;;;1.00;1.00;;;;;-147.17;100.00;-15917.19;4990805;28;52927;-45
2022/11/04 08:29:53;;;;;;;;;2.00;1.00;;;;;-147.17;100.00;-15917.19;5012314;28;51021;-46
2022/11/04 08:32:19;;;;;;;;;1.00;0.67;;;;;-147.17;100.00;-15917.19;5010480;28;51189;-46
2022/11/04 08:34:44;;;;;;;;;6.67;4.67;;;;;-147.17;100.00;-15917.19;5013884;28;51078;-46
2022/11/04 08:37:13;;;;;;;;;1.00;1.00;;;;;-147.17;100.00;-15917.19;5016383;28;52732;-46
2022/11/04 08:39:38;;;;;;;;;6.67;6.67;;;;;-147.17;100.00;-15917.19;5018210;28;51036;-46
2022/11/04 08:42:04;;;;;;;;;3.00;2.00;;;;;-147.17;100.00;-15917.19;5008912;28;50958;-46
2022/11/04 08:44:32;;;;;;;;;2.00;1.33;;;;;-147.17;100.00;-15917.19;4997477;28;51119;-46
2022/11/04 08:46:58;;;;;;;;;3.00;2.00;;;;;-147.17;100.00;-15917.19;5012498;28;51977;-46
2022/11/04 08:49:23;;;;;;;;;0.00;0.00;;;;;-147.17;100.00;-15917.19;5012484;28;51071;-46
2022/11/04 08:51:55;;;;;;;;;1.00;0.33;;;;;-147.17;100.00;-15917.19;4988657;28;51410;-46
2022/11/04 08:54:20;;;;;;;;;0.67;0.67;;;;;-147.17;100.00;-15917.19;5010620;28;51270;-46
2022/11/04 08:56:47;;;;;;;;;1.33;1.33;;;;;-147.17;100.00;-15917.19;5008458;28;53064;-46
2022/11/04 08:59:13;;;;;;;;;1.67;1.00;;;;;-147.17;100.00;-15917.19;5005991;28;51101;-45
2022/11/04 09:01:39;;;;;;;;;2.00;2.00;;;;;-147.17;100.00;-15917.19;5008773;28;51240;-46
2022/11/04 09:04:05;;;;;;;;;3.00;2.00;;;;;-147.17;100.00;-15917.19;5008318;28;51043;-47
2022/11/04 09:06:35;;;;;;;;;1.67;1.00;;;;;-147.17;100.00;-15917.19;5008214;28;52068;-46
2022/11/04 09:09:03;;;;;;;;;2.00;0.00;;;;;-147.17;100.00;-15917.19;5013989;28;51073;-46
2022/11/04 09:11:33;;;;;;;;;1.33;1.00;;;;;-147.17;100.00;-15917.19;5011738;28;51094;-46
2022/11/04 09:14:00;;;;;;;;;0.00;0.00;;;;;-147.17;100.00;-15917.19;5010061;28;51271;-46
2022/11/04 09:16:26;;;;;;;;;0.33;0.33;;;;;-147.17;100.00;-15917.19;5003664;28;51957;-46
2022/11/04 09:18:51;;;;;;;;;1.00;0.00;;;;;-147.17;100.00;-15917.19;4984067;28;51119;-46
2022/11/04 09:21:17;;;;;;;;;0.00;0.00;;;;;-147.17;100.00;-15917.19;5011785;28;51754;-46
2022/11/04 09:23:42;;;;;;;;;11.33;10.33;;;;;-147.17;100.00;-15917.19;5013415;28;50967;-46
2022/11/04 09:26:14;;;;;;;;;1.00;1.00;;;;;-147.17;100.00;-15917.19;5011863;28;52748;-46
2022/11/04 09:28:40;;;;;;;;;1.00;1.00;;;;;-147.17;100.00;-15917.19;5006477;28;51253;-46
2022/11/04 09:31:07;;;;;;;;;2.00;2.00;;;;;-147.17;100.00;-15917.19;5011993;28;51332;-46
2022/11/04 09:33:33;;;;;;;;;0.00;0.00;;;;;-147.17;100.00;-15917.19;4994818;28;51088;-46
2022/11/04 09:35:58;;;;;;;;;2.33;1.00;;;;;-147.17;100.00;-15917.19;5012806;28;51665;-47
2022/11/04 09:38:24;;;;;;;;;1.67;1.67;;;;;-147.17;100.00;-15917.19;5013535;28;51123;-46
2022/11/04 09:40:51;;;;;;;;;4.67;4.00;;;;;-147.17;100.00;-15917.19;5013165;28;51024;-46
2022/11/04 09:43:44;;;;;;;;;3.00;2.00;;;;;-147.17;100.00;-15917.19;5012818;28;51037;-46
2022/11/04 09:46:12;;;;;;;;;2.67;2.00;;;;;-147.17;100.00;-15917.19;5012363;28;51056;-46
2022/11/04 09:48:47;;;;;;;;;3.00;3.00;;;;;-147.17;100.00;-15917.19;5012814;28;51116;-46
2022/11/04 09:51:15;;;;;;;;;4.67;2.33;;;;;-147.17;100.00;-15917.19;5012754;28;51158;-46
2022/11/04 09:53:48;;;;;;;;;2.67;2.00;;;;;-147.17;100.00;-15917.19;5013396;28;50875;-47
2022/11/04 09:56:20;;;;;;;;;3.00;2.00;;;;;-147.17;100.00;-15917.19;5001609;28;51097;-46
2022/11/04 09:58:48;;;;;;;;;4.00;2.00;;;;;-147.17;100.00;-15917.19;5011979;28;51143;-45
2022/11/04 10:01:16;;;;;;;;;1.33;1.00;;;;;-147.17;100.00;-15917.19;5012262;28;50977;-46
2022/11/04 10:04:13;;;;;;;;;4.33;3.00;;;;;-147.17;100.00;-15917.19;5012606;28;50958;-46
2022/11/04 10:07:32;;;;;;;;;4.00;2.00;;;;;-147.17;100.00;-15917.19;5008435;28;51147;-45
2022/11/04 10:10:13;;;;;;;;;2.00;1.67;;;;;-147.17;100.00;-15917.19;4970588;28;51165;-46
2022/11/04 10:12:53;;;;;;;;;0.33;0.33;;;;;-147.17;100.00;-15917.19;5007681;28;51112;-45
2022/11/04 10:15:27;;;;;;;;;2.00;1.33;;;;;-147.17;100.00;-15917.19;5012877;28;51082;-46
2022/11/04 10:18:11;;;;;;;;;0.00;0.00;;;;;-147.17;100.00;-15917.19;5004912;28;51848;-46
2022/11/04 10:20:55;;;;;;;;;1.67;1.00;;;;;-147.17;100.00;-15917.19;5001255;28;51130;-47
2022/11/04 10:23:27;;;;;;;;;5.67;4.67;;;;;-147.17;100.00;-15917.19;5012070;28;51037;-46
2022/11/04 10:26:19;;;;;;;;;2.33;2.00;;;;;-147.17;100.00;-15917.19;4996533;28;51086;-46
2022/11/04 10:28:54;;;;;;;;;2.00;2.00;;;;;-147.17;100.00;-15917.19;5010819;28;50962;-47
2022/11/04 10:31:20;;;;;;;;;2.00;2.00;;;;;-147.17;100.00;-15917.19;5011705;28;51132;-46
2022/11/04 10:33:58;;;;;;;;;2.00;1.33;;;;;-147.17;100.00;-15917.19;5012061;28;51160;-46
2022/11/04 10:36:24;;;;;;;;;2.00;2.00;;;;;-147.17;100.00;-15917.19;5013204;28;50971;-46
2022/11/04 10:38:56;;;;;;;;;5.00;4.00;;;;;-147.17;100.00;-15917.19;5011983;28;52006;-46
2022/11/04 10:41:36;;;;;;;;;1.67;1.67;;;;;-147.17;100.00;-15917.19;4994018;28;51213;-45
2022/11/04 10:44:06;;;;;;;;;5.00;4.00;;;;;-147.17;100.00;-15917.19;5011582;28;52661;-53
2022/11/04 10:46:58;;;;;;;;;2.33;2.33;;;;;-147.17;100.00;-15917.19;5012462;28;51308;-45
2022/11/04 10:49:42;;;;;;;;;3.00;2.00;;;;;-147.17;100.00;-15917.19;4968587;28;51355;-47
2022/11/04 10:52:08;;;;;;;;;3.00;3.00;;;;;-147.17;100.00;-15917.19;5009836;28;51205;-49
2022/11/04 10:54:42;;;;;;;;;2.67;2.00;;;;;-147.17;100.00;-15917.19;5004050;28;50911;-45
2022/11/04 10:57:10;;;;;;;;;2.00;2.00;;;;;-147.17;100.00;-15917.19;4994655;28;51094;-46
2022/11/04 10:59:51;;;;;;;;;2.00;2.00;;;;;-147.17;100.00;-15917.19;5010883;28;51077;-46
2022/11/04 11:02:16;;;;;;;;;5.67;5.00;;;;;-147.17;100.00;-15917.19;4993830;28;51048;-46
2022/11/04 11:04:44;;;;;;;;;1.00;1.00;;;;;-147.17;100.00;-15917.19;5011794;28;51318;-46
2022/11/04 11:07:11;;;;;;;;;3.00;2.00;;;;;-147.17;100.00;-15917.19;5012003;28;51271;-45
2022/11/04 11:09:40;;;;;;;;;3.00;3.00;;;;;-147.17;100.00;-15917.19;5011667;28;51998;-47
2022/11/04 11:12:23;;;;;;;;;3.67;3.00;;;;;-147.17;100.00;-15917.19;4993615;28;51109;-47
2022/11/04 11:14:48;;;;;;;;;3.33;3.33;;;;;-147.17;100.00;-15917.19;4974775;28;50929;-45
2022/11/04 11:17:13;;;;;;;;;2.00;2.00;;;;;-147.17;100.00;-15917.19;4989633;28;51128;-46
2022/11/04 11:20:09;;;;;;;;;4.00;4.00;;;;;-147.17;100.00;-15917.19;5002191;28;52363;-46
2022/11/04 11:22:43;;;;;;;;;4.00;3.33;;;;;-147.17;100.00;-15917.19;5006041;28;51070;-45
2022/11/04 11:25:28;;;;;;;;;1.33;1.33;;;;;-147.17;100.00;-15917.19;5011372;28;51141;-46
2022/11/04 11:28:00;;;;;;;;;4.00;4.00;;;;;-147.17;100.00;-15917.19;4997728;28;50938;-45
2022/11/04 11:30:33;;;;;;;;;2.67;2.67;;;;;-147.17;100.00;-15917.19;5010664;28;50971;-47
2022/11/04 11:33:26;;;;;;;;;2.67;1.67;;;;;-147.17;100.00;-15917.19;4994137;28;51149;-47
2022/11/04 11:35:55;;;;;;;;;5.67;3.67;;;;;-147.17;100.00;-15917.19;5010408;28;51282;-47
2022/11/04 11:38:32;;;;;;;;;3.00;3.00;;;;;-147.17;100.00;-15917.19;5012228;28;50883;-45
2022/11/04 11:41:20;;;;;;;;;3.00;3.00;;;;;-147.17;100.00;-15917.19;5014254;28;52021;-46
2022/11/04 11:43:50;;;;;;;;;4.33;2.67;;;;;-147.17;100.00;-15917.19;5013837;28;51028;-45
2022/11/04 11:46:29;;;;;;;;;2.67;2.00;;;;;-147.17;100.00;-15917.19;5014757;28;50908;-45